Time;durP1;ratioP1;P1;durP2;ratioP2;P2;SDS_P1;SDS_P2;PMS_P1;PMS_P2;Temp;Humidity;BMP_temperature;BMP_pressure;BME280_temperature;BME280_humidity;BME280_pressure;Samples;Min_cycle;Max_cycle;Signal;HPM_P1;HPM_P2
2023/05/12 00:02:01;;;;;;;13.90;7.20;;;;;;;11.66;49.58;100446.73;129387;1278;114738;-68
2023/05/12 00:05:04;;;;;;;10.40;6.00;;;;;;;11.63;49.74;100450.30;129434;1281;114764;-70
2023/05/12 00:08:06;;;;;;;12.10;5.90;;;;;;;11.58;49.37;100451.83;129501;1258;114727;-63
2023/05/12 00:11:10;;;;;;;10.70;6.90;;;;;;;11.53;49.36;100446.64;129525;1281;114718;-68
2023/05/12 00:14:12;;;;;;;15.10;5.40;;;;;;;11.51;49.27;100447.30;129566;1264;114809;-62
2023/05/12 00:17:15;;;;;;;8.90;5.00;;;;;;;11.47;49.34;100445.55;129503;1262;114742;-68
2023/05/12 00:20:17;;;;;;;10.90;5.40;;;;;;;11.42;49.67;100440.79;129396;1280;114722;-61
2023/05/12 00:23:21;;;;;;;12.50;6.20;;;;;;;11.38;49.75;100444.92;129623;1277;114895;-67
2023/05/12 00:26:23;;;;;;;9.60;6.10;;;;;;;11.34;49.64;100440.44;129612;1260;115149;-66
2023/05/12 00:29:26;;;;;;;9.30;5.80;;;;;;;11.30;49.47;100438.35;129520;1264;115402;-69
2023/05/12 00:32:29;;;;;;;9.60;5.50;;;;;;;11.25;49.77;100438.80;129607;1272;114805;-67
2023/05/12 00:35:31;;;;;;;16.50;5.50;;;;;;;11.20;49.91;100442.07;129643;1280;114752;-66
2023/05/12 00:38:36;;;;;;;10.10;6.30;;;;;;;11.16;50.06;100442.63;130002;1280;114791;-65
2023/05/12 00:41:38;;;;;;;9.20;5.90;;;;;;;11.13;50.20;100444.03;129467;1280;127761;-69
2023/05/12 00:44:41;;;;;;;11.40;6.20;;;;;;;11.09;50.04;100443.84;129847;1273;114806;-68
2023/05/12 00:47:45;;;;;;;8.80;5.70;;;;;;;11.06;50.12;100445.81;129625;1280;114728;-67
2023/05/12 00:50:47;;;;;;;16.40;6.70;;;;;;;11.02;50.04;100444.55;129523;1280;114811;-69
2023/05/12 00:53:50;;;;;;;8.60;5.60;;;;;;;10.98;50.67;100444.58;129684;1277;115402;-68
2023/05/12 00:56:54;;;;;;;8.10;5.10;;;;;;;10.95;50.59;100446.34;129547;1280;114765;-69
2023/05/12 00:59:56;;;;;;;11.40;5.80;;;;;;;10.91;50.70;100453.13;129610;1280;114828;-68
2023/05/12 01:03:00;;;;;;;13.00;5.80;;;;;;;10.87;50.71;100456.36;129560;1275;115087;-69
2023/05/12 01:06:14;;;;;;;16.00;5.50;;;;;;;10.82;50.80;100461.42;129489;1264;114677;-68
2023/05/12 01:09:17;;;;;;;14.00;5.90;;;;;;;10.76;50.87;100460.98;129518;1281;114728;-69
2023/05/12 01:12:20;;;;;;;9.00;6.20;;;;;;;10.72;51.10;100464.75;129189;1280;319933;-64
2023/05/12 01:15:22;;;;;;;11.40;6.20;;;;;;;10.68;51.27;100465.84;129516;1281;114712;-68
2023/05/12 01:18:26;;;;;;;15.60;5.70;;;;;;;10.63;51.28;100469.64;129448;1257;114728;-68
2023/05/12 01:21:28;;;;;;;13.80;5.20;;;;;;;10.59;51.13;100465.02;129464;1264;114763;-69
2023/05/12 01:24:33;;;;;;;11.30;5.70;;;;;;;10.55;51.12;100464.66;129449;1281;114725;-69
2023/05/12 01:27:38;;;;;;;12.60;5.70;;;;;;;10.52;51.41;100462.52;129518;1281;114794;-68
2023/05/12 01:30:41;;;;;;;11.10;5.40;;;;;;;10.47;51.49;100465.92;129295;1258;127865;-67
2023/05/12 01:33:43;;;;;;;10.10;6.30;;;;;;;10.42;51.70;100466.49;129375;1281;115125;-69
2023/05/12 01:36:46;;;;;;;10.50;5.60;;;;;;;10.38;51.97;100467.40;129492;1281;114732;-69
2023/05/12 01:39:48;;;;;;;9.10;5.40;;;;;;;10.33;51.73;100471.32;129526;1257;114752;-69
2023/05/12 01:42:50;;;;;;;11.60;5.30;;;;;;;10.29;51.91;100471.34;129345;1256;114865;-69
2023/05/12 01:45:52;;;;;;;11.60;5.00;;;;;;;10.25;51.93;100472.06;129453;1261;114719;-70
2023/05/12 01:48:55;;;;;;;11.90;5.30;;;;;;;10.20;52.12;100472.10;129575;1259;114969;-67
2023/05/12 01:51:57;;;;;;;15.10;5.30;;;;;;;10.15;52.26;100472.51;129604;1276;114810;-68
2023/05/12 01:54:59;;;;;;;16.90;6.20;;;;;;;10.11;52.31;100473.98;129448;1262;115202;-70
2023/05/12 01:58:02;;;;;;;9.80;5.70;;;;;;;10.06;52.48;100475.41;129508;1280;114749;-69
2023/05/12 02:01:04;;;;;;;11.20;6.00;;;;;;;10.01;52.54;100474.20;129614;1261;114840;-70
2023/05/12 02:04:07;;;;;;;7.20;5.00;;;;;;;9.97;52.51;100477.60;129575;1261;114745;-67
2023/05/12 02:07:09;;;;;;;12.00;5.20;;;;;;;9.93;52.75;100479.57;129425;1281;114971;-69
2023/05/12 02:10:12;;;;;;;11.30;5.40;;;;;;;9.90;52.66;100478.63;129402;1257;115113;-70
2023/05/12 02:13:14;;;;;;;16.10;6.20;;;;;;;9.86;52.70;100480.94;129589;1257;115286;-69
2023/05/12 02:16:16;;;;;;;12.20;6.30;;;;;;;9.80;53.17;100481.91;129610;1262;115214;-69
2023/05/12 02:19:19;;;;;;;9.80;5.40;;;;;;;9.77;52.98;100480.80;129711;1273;114737;-69
2023/05/12 02:22:22;;;;;;;10.90;5.50;;;;;;;9.72;53.16;100480.77;129751;1262;114728;-69
2023/05/12 02:25:27;;;;;;;8.40;4.60;;;;;;;9.68;53.14;100479.70;129702;1274;114772;-69
2023/05/12 02:28:29;;;;;;;13.30;5.40;;;;;;;9.65;53.23;100482.74;129538;1264;114729;-69
2023/05/12 02:31:32;;;;;;;12.00;5.80;;;;;;;9.60;53.21;100482.39;129398;1281;114783;-69
2023/05/12 02:34:34;;;;;;;12.30;6.00;;;;;;;9.56;53.41;100485.41;129456;1278;114812;-69
2023/05/12 02:37:36;;;;;;;10.20;5.40;;;;;;;9.51;53.72;100489.17;129605;1259;115286;-62
2023/05/12 02:40:39;;;;;;;11.70;5.90;;;;;;;9.47;53.83;100489.73;129388;1257;114780;-61
2023/05/12 02:43:41;;;;;;;10.90;6.20;;;;;;;9.43;53.91;100492.55;129818;1261;114740;-61
2023/05/12 02:46:43;;;;;;;10.50;6.10;;;;;;;9.39;53.96;100493.24;129841;1262;114843;-63
2023/05/12 02:49:45;;;;;;;10.20;5.70;;;;;;;9.35;53.98;100495.04;129593;1278;115505;-61
2023/05/12 02:52:48;;;;;;;11.00;5.60;;;;;;;9.32;54.23;100494.11;129523;1259;128912;-62
2023/05/12 02:55:50;;;;;;;6.00;5.00;;;;;;;9.28;54.41;100494.06;129615;1263;115234;-60
2023/05/12 02:58:53;;;;;;;14.90;5.50;;;;;;;9.24;54.21;100490.65;129584;1281;115327;-62
2023/05/12 03:01:55;;;;;;;9.60;6.20;;;;;;;9.21;54.49;100497.55;129547;1257;114748;-60
2023/05/12 03:04:57;;;;;;;6.90;5.30;;;;;;;9.17;54.80;100498.08;129801;1262;115043;-61
2023/05/12 03:08:01;;;;;;;9.60;6.30;;;;;;;9.12;54.64;100504.87;129489;1281;114732;-60
2023/05/12 03:11:03;;;;;;;9.70;5.60;;;;;;;9.08;54.98;100505.04;129464;1275;114796;-60
2023/05/12 03:14:07;;;;;;;10.50;5.80;;;;;;;9.05;54.95;100505.89;129307;1281;114740;-62
2023/05/12 03:17:09;;;;;;;10.40;6.40;;;;;;;9.04;55.13;100507.51;129574;1259;116494;-60
2023/05/12 03:20:12;;;;;;;10.40;6.10;;;;;;;9.03;55.25;100506.86;129511;1281;115342;-65
2023/05/12 03:23:14;;;;;;;8.20;5.10;;;;;;;9.02;55.07;100505.83;129667;1259;114754;-67
2023/05/12 03:26:17;;;;;;;12.80;5.90;;;;;;;9.01;55.35;100507.42;129420;1267;114717;-67
2023/05/12 03:29:20;;;;;;;11.00;5.70;;;;;;;9.02;55.45;100515.08;129484;1281;114720;-66
2023/05/12 03:32:22;;;;;;;15.80;5.90;;;;;;;9.02;55.64;100511.12;129525;1259;114741;-66
2023/05/12 03:35:25;;;;;;;9.30;5.60;;;;;;;9.04;55.62;100511.98;129490;1261;114764;-68
2023/05/12 03:38:27;;;;;;;18.70;5.20;;;;;;;9.05;55.46;100511.04;129569;1281;115360;-70
2023/05/12 03:41:30;;;;;;;10.70;5.40;;;;;;;9.07;55.80;100511.83;129295;1259;114741;-69
2023/05/12 03:44:32;;;;;;;10.40;5.90;;;;;;;9.11;55.76;100514.17;129598;1259;114808;-69
2023/05/12 03:47:34;;;;;;;11.20;6.60;;;;;;;9.16;55.62;100514.17;129609;1262;115048;-68
2023/05/12 03:50:37;;;;;;;16.80;6.20;;;;;;;9.21;55.62;100520.19;129636;1259;115349;-70
2023/05/12 03:53:44;;;;;;;8.80;5.50;;;;;;;9.25;55.66;100523.76;129494;1264;115184;-69
2023/05/12 03:56:46;;;;;;;13.40;5.90;;;;;;;9.30;55.69;100522.15;129485;1265;114779;-69
2023/05/12 03:59:48;;;;;;;13.80;5.90;;;;;;;9.34;55.57;100528.73;129492;1263;114793;-65
2023/05/12 04:02:51;;;;;;;11.50;5.70;;;;;;;9.37;55.44;100528.27;129556;1281;114704;-65
2023/05/12 04:06:01;;;;;;;12.80;6.00;;;;;;;9.40;55.49;100525.10;129594;1281;114768;-67
2023/05/12 04:09:03;;;;;;;12.90;5.60;;;;;;;9.43;55.51;100525.35;129410;1281;126577;-63
2023/05/12 04:12:05;;;;;;;12.50;5.60;;;;;;;9.47;55.54;100533.25;129821;1280;115233;-69
2023/05/12 04:15:09;;;;;;;8.90;5.60;;;;;;;9.49;55.61;100531.20;129675;1280;114837;-68
2023/05/12 04:18:12;;;;;;;15.70;6.70;;;;;;;9.54;55.52;100530.41;129664;1260;114764;-68
2023/05/12 04:21:14;;;;;;;10.70;6.10;;;;;;;9.59;55.47;100530.06;129765;1256;114688;-68
2023/05/12 04:24:16;;;;;;;14.30;5.70;;;;;;;9.63;55.48;100534.02;129744;1261;114714;-68
2023/05/12 04:27:19;;;;;;;12.20;5.70;;;;;;;9.66;55.63;100538.69;129642;1261;128521;-67
2023/05/12 04:30:21;;;;;;;14.70;6.60;;;;;;;9.73;55.58;100541.21;129770;1280;115243;-68
2023/05/12 04:33:23;;;;;;;11.70;5.80;;;;;;;9.82;55.57;100542.10;129826;1280;114723;-65
2023/05/12 04:36:26;;;;;;;11.60;5.80;;;;;;;9.93;55.48;100550.03;129594;1259;114940;-67
2023/05/12 04:39:28;;;;;;;16.00;7.00;;;;;;;10.07;55.61;100544.80;129628;1258;114744;-68
2023/05/12 04:42:30;;;;;;;13.10;5.30;;;;;;;10.25;55.39;100544.91;129635;1261;114976;-68
2023/05/12 04:45:32;;;;;;;8.60;6.10;;;;;;;10.58;55.09;100542.05;129497;1265;114834;-67
2023/05/12 04:48:40;;;;;;;13.10;6.00;;;;;;;10.74;55.04;100546.65;129496;1262;114791;-68
2023/05/12 04:51:43;;;;;;;10.40;5.40;;;;;;;10.87;54.78;100546.80;129541;1262;115257;-65
2023/05/12 04:54:45;;;;;;;16.80;5.90;;;;;;;10.93;54.44;100545.42;129744;1275;114820;-67
2023/05/12 04:57:47;;;;;;;12.20;6.30;;;;;;;11.34;54.97;100543.84;129559;1262;114707;-68
2023/05/12 05:00:50;;;;;;;12.90;6.20;;;;;;;12.33;54.76;100546.73;129486;1273;114799;-69
2023/05/12 05:03:53;;;;;;;8.90;5.30;;;;;;;13.39;53.93;100547.05;129560;1264;114754;-69
2023/05/12 05:06:55;;;;;;;10.50;5.40;;;;;;;14.15;53.32;100544.61;129544;1278;114838;-69
2023/05/12 05:09:57;;;;;;;10.80;5.70;;;;;;;14.63;52.15;100540.55;129685;1280;114706;-69
2023/05/12 05:13:00;;;;;;;10.40;5.10;;;;;;;15.34;51.33;100538.05;129679;1280;115083;-70
2023/05/12 05:16:03;;;;;;;9.90;5.70;;;;;;;15.84;50.03;100536.00;129720;1258;114748;-69
2023/05/12 05:19:05;;;;;;;11.30;5.40;;;;;;;16.11;49.54;100541.05;129790;1261;115361;-70
2023/05/12 05:22:08;;;;;;;6.60;5.00;;;;;;;16.49;49.33;100542.56;129432;1263;114920;-68
2023/05/12 05:25:10;;;;;;;8.30;5.30;;;;;;;17.04;47.95;100545.20;129717;1273;114891;-69
2023/05/12 05:28:12;;;;;;;8.60;5.80;;;;;;;17.47;47.70;100542.95;129414;1260;127871;-70
2023/05/12 05:31:16;;;;;;;11.10;5.30;;;;;;;17.84;45.82;100542.52;129636;1261;116420;-70
2023/05/12 05:34:18;;;;;;;10.20;5.50;;;;;;;18.00;45.23;100539.91;129534;1262;114902;-70
2023/05/12 05:37:20;;;;;;;7.10;5.50;;;;;;;18.15;45.46;100542.73;129459;1259;115103;-70
2023/05/12 05:40:23;;;;;;;6.80;4.60;;;;;;;18.40;44.36;100538.23;129544;1274;116277;-72
2023/05/12 05:43:25;;;;;;;11.30;6.40;;;;;;;18.49;44.00;100534.80;129365;1268;114703;-69
2023/05/12 05:46:27;;;;;;;7.40;5.30;;;;;;;18.81;44.27;100538.08;129611;1275;114938;-67
2023/05/12 05:49:29;;;;;;;7.10;5.20;;;;;;;19.19;43.41;100534.54;129491;1260;114816;-68
2023/05/12 05:52:32;;;;;;;9.60;5.00;;;;;;;19.48;42.61;100538.69;129529;1281;115307;-70
2023/05/12 05:55:34;;;;;;;8.90;5.10;;;;;;;19.68;41.50;100541.19;129593;1278;114712;-71
2023/05/12 05:58:37;;;;;;;10.20;6.10;;;;;;;19.64;41.10;100541.48;129506;1275;115276;-69
2023/05/12 06:01:40;;;;;;;14.30;4.60;;;;;;;19.85;41.43;100544.45;129499;1257;114723;-70
2023/05/12 06:04:42;;;;;;;10.70;5.30;;;;;;;20.18;40.90;100544.58;129364;1279;116252;-69
2023/05/12 06:07:45;;;;;;;8.20;4.90;;;;;;;20.54;40.87;100546.17;129463;1257;114730;-70
2023/05/12 06:10:47;;;;;;;9.20;5.20;;;;;;;20.86;40.19;100546.13;129477;1281;114782;-69
2023/05/12 06:13:49;;;;;;;15.30;5.10;;;;;;;21.31;39.97;100546.63;129525;1259;115268;-70
2023/05/12 06:16:51;;;;;;;10.20;5.00;;;;;;;21.62;38.82;100546.08;129546;1262;114810;-70
2023/05/12 06:19:54;;;;;;;13.10;4.70;;;;;;;21.91;39.27;100542.09;129561;1262;114806;-71
2023/05/12 06:22:56;;;;;;;10.20;5.10;;;;;;;22.43;38.54;100541.43;129485;1281;114787;-68
2023/05/12 06:25:59;;;;;;;7.70;4.30;;;;;;;22.66;37.86;100541.77;129572;1277;114732;-71
2023/05/12 06:29:02;;;;;;;9.40;5.50;;;;;;;22.86;36.71;100542.01;129452;1261;128842;-69
2023/05/12 06:32:05;;;;;;;13.60;5.10;;;;;;;22.70;35.91;100545.52;129593;1262;114725;-71
2023/05/12 06:35:08;;;;;;;7.60;4.90;;;;;;;22.62;35.84;100547.63;129570;1262;114815;-71
2023/05/12 06:38:10;;;;;;;8.30;5.30;;;;;;;22.45;35.14;100552.48;129663;1262;114729;-70
2023/05/12 06:41:13;;;;;;;5.30;4.60;;;;;;;22.28;35.65;100553.48;129558;1274;115120;-70
2023/05/12 06:44:15;;;;;;;9.90;4.80;;;;;;;22.33;35.56;100557.48;129771;1269;115624;-70
2023/05/12 06:47:17;;;;;;;9.00;5.40;;;;;;;22.14;34.95;100554.85;129509;1265;128622;-69
2023/05/12 06:50:20;;;;;;;14.30;4.90;;;;;;;22.05;35.62;100550.44;129571;1262;115158;-67
2023/05/12 06:53:22;;;;;;;9.40;4.60;;;;;;;22.15;35.64;100550.60;129706;1256;114907;-71
2023/05/12 06:56:24;;;;;;;10.90;5.10;;;;;;;22.22;34.83;100545.94;129531;1256;114739;-68
2023/05/12 06:59:27;;;;;;;9.00;4.40;;;;;;;22.35;35.44;100544.45;129746;1276;114790;-69
2023/05/12 07:02:29;;;;;;;9.10;5.80;;;;;;;22.56;34.92;100543.39;129547;1263;114782;-69
2023/05/12 07:05:32;;;;;;;11.90;5.40;;;;;;;22.60;34.57;100545.04;129475;1259;114806;-69
2023/05/12 07:08:35;;;;;;;11.10;4.80;;;;;;;22.82;34.95;100543.06;129310;1281;129759;-69
2023/05/12 07:11:41;;;;;;;12.90;6.90;;;;;;;23.01;34.62;100540.56;129969;1270;114703;-69
2023/05/12 07:14:45;;;;;;;8.90;5.40;;;;;;;23.31;34.61;100533.41;130278;1260;115110;-69
2023/05/12 07:17:48;;;;;;;6.30;5.10;;;;;;;23.58;34.10;100531.25;129821;1268;114689;-71
2023/05/12 07:20:52;;;;;;;8.20;4.60;;;;;;;23.89;33.72;100530.88;129587;1266;114704;-68
2023/05/12 07:23:54;;;;;;;10.00;5.10;;;;;;;24.03;33.53;100530.60;129586;1260;114779;-70
2023/05/12 07:26:56;;;;;;;6.70;4.70;;;;;;;24.04;33.19;100531.92;129650;1263;114746;-70
2023/05/12 07:29:59;;;;;;;8.10;4.30;;;;;;;24.32;33.28;100534.35;129500;1263;114744;-69
2023/05/12 07:33:02;;;;;;;8.40;4.30;;;;;;;24.52;33.01;100535.38;129392;1267;114845;-69
2023/05/12 07:36:07;;;;;;;6.20;4.40;;;;;;;24.59;33.04;100533.12;129599;1262;115163;-70
2023/05/12 07:39:09;;;;;;;5.50;4.30;;;;;;;24.85;32.80;100530.27;129517;1281;114806;-69
2023/05/12 07:42:12;;;;;;;8.40;4.40;;;;;;;25.03;32.02;100531.44;129455;1276;114764;-69
2023/05/12 07:45:21;;;;;;;6.90;4.20;;;;;;;25.09;31.88;100535.61;129514;1262;115029;-66
2023/05/12 07:48:23;;;;;;;7.60;4.10;;;;;;;25.19;32.24;100535.77;129409;1262;115107;-69
2023/05/12 07:51:26;;;;;;;7.30;4.70;;;;;;;25.50;32.04;100536.86;129440;1262;114804;-68
2023/05/12 07:54:28;;;;;;;9.50;5.00;;;;;;;25.73;31.02;100539.05;129526;1258;114801;-70
2023/05/12 07:57:30;;;;;;;5.70;4.50;;;;;;;25.56;30.64;100537.04;129645;1281;114895;-68
2023/05/12 08:00:33;;;;;;;7.80;4.00;;;;;;;25.48;30.84;100533.48;129872;1278;114761;-69
2023/05/12 08:03:35;;;;;;;7.70;3.80;;;;;;;25.45;31.21;100534.79;129470;1277;114730;-72
2023/05/12 08:06:37;;;;;;;5.80;4.10;;;;;;;25.46;30.68;100532.49;129559;1263;114707;-70
2023/05/12 08:09:40;;;;;;;5.30;4.30;;;;;;;25.37;30.65;100534.78;129533;1281;115091;-69
2023/05/12 08:12:42;;;;;;;8.10;4.40;;;;;;;25.32;30.84;100534.55;129648;1262;114782;-72
2023/05/12 08:15:46;;;;;;;4.30;3.50;;;;;;;25.21;30.64;100529.69;129523;1262;114804;-71
2023/05/12 08:18:49;;;;;;;7.10;4.20;;;;;;;25.05;30.53;100533.63;129542;1259;114781;-69
2023/05/12 08:21:51;;;;;;;6.50;4.10;;;;;;;24.95;30.89;100529.09;129469;1268;115310;-68
2023/05/12 08:24:53;;;;;;;10.60;4.60;;;;;;;25.09;31.09;100530.43;129521;1265;115264;-70
2023/05/12 08:27:56;;;;;;;7.90;4.10;;;;;;;25.33;31.38;100531.92;129703;1262;115081;-71
2023/05/12 08:30:59;;;;;;;6.20;3.70;;;;;;;25.52;30.93;100533.23;129620;1262;114791;-70
2023/05/12 08:34:01;;;;;;;8.50;4.80;;;;;;;25.45;30.63;100534.64;129664;1275;114738;-69
2023/05/12 08:37:05;;;;;;;7.70;3.80;;;;;;;25.34;30.74;100535.65;129670;1257;115533;-70
2023/05/12 08:40:15;;;;;;;6.50;4.20;;;;;;;25.33;30.79;100533.77;129588;1257;119377;-70
2023/05/12 08:43:17;;;;;;;7.70;4.00;;;;;;;25.40;31.12;100529.52;129818;1280;115201;-71
2023/05/12 08:46:20;;;;;;;11.00;5.30;;;;;;;25.43;30.76;100538.86;129705;1270;116312;-71
2023/05/12 08:49:24;;;;;;;13.00;4.40;;;;;;;25.27;30.54;100536.35;129879;1262;114798;-72
2023/05/12 08:52:29;;;;;;;6.90;3.90;;;;;;;25.03;30.62;100539.02;129565;1278;114907;-71
2023/05/12 08:55:32;;;;;;;8.10;4.00;;;;;;;24.69;30.92;100536.55;129293;1263;115527;-69
2023/05/12 08:58:36;;;;;;;8.10;4.10;;;;;;;24.53;31.11;100537.06;129603;1280;128248;-71
2023/05/12 09:01:41;;;;;;;9.00;4.10;;;;;;;24.48;31.37;100538.89;129901;1280;114748;-67
2023/05/12 09:04:44;;;;;;;6.70;3.70;;;;;;;24.37;31.27;100534.02;129452;1281;115405;-67
2023/05/12 09:07:48;;;;;;;4.00;3.10;;;;;;;24.36;31.88;100531.95;129587;1281;114717;-66
2023/05/12 09:10:56;;;;;;;10.30;4.20;;;;;;;24.51;31.79;100534.17;129562;1281;115243;-67
2023/05/12 09:14:18;;;;;;;6.70;3.80;;;;;;;24.55;31.38;100531.94;129781;1262;128859;-66
2023/05/12 09:17:20;;;;;;;8.30;3.90;;;;;;;24.38;31.34;100529.67;129512;1262;115177;-69
2023/05/12 09:20:29;;;;;;;7.10;4.00;;;;;;;24.23;31.58;100529.05;129582;1262;114769;-64
2023/05/12 09:23:34;;;;;;;8.30;4.80;;;;;;;24.13;31.46;100528.67;129527;1258;114911;-70
2023/05/12 09:26:48;;;;;;;8.80;4.30;;;;;;;24.05;31.58;100522.77;129896;1262;114680;-70
2023/05/12 09:29:50;;;;;;;6.40;3.00;;;;;;;23.87;31.26;100522.30;129655;1281;129253;-69
2023/05/12 09:33:04;;;;;;;9.90;3.40;;;;;;;23.69;31.73;100522.56;129566;1281;114839;-66
2023/05/12 09:36:06;;;;;;;7.00;3.70;;;;;;;23.41;31.91;100523.90;129672;1279;114843;-62
2023/05/12 09:39:09;;;;;;;8.00;3.10;;;;;;;23.28;32.65;100521.84;129831;1276;114876;-69
2023/05/12 09:42:11;;;;;;;8.00;3.30;;;;;;;23.27;32.39;100529.22;129875;1280;114777;-71
2023/05/12 09:45:14;;;;;;;5.40;3.50;;;;;;;23.09;32.14;100525.77;129858;1278;114748;-62
2023/05/12 09:48:17;;;;;;;5.60;3.30;;;;;;;22.87;32.44;100527.58;129947;1276;127632;-70
2023/05/12 09:51:19;;;;;;;7.90;3.80;;;;;;;22.73;33.01;100520.51;129818;1262;114785;-70
2023/05/12 09:54:30;;;;;;;3.90;2.80;;;;;;;22.62;33.19;100523.05;129682;1280;114713;-67
2023/05/12 09:57:35;;;;;;;5.20;3.10;;;;;;;22.45;32.33;100529.92;129693;1280;114711;-70
2023/05/12 10:00:40;;;;;;;11.30;3.20;;;;;;;22.23;32.87;100525.05;129368;1280;114820;-65
2023/05/12 10:03:46;;;;;;;7.10;3.40;;;;;;;22.20;33.29;100520.06;129445;1280;127990;-67
2023/05/12 10:06:48;;;;;;;6.40;4.00;;;;;;;22.10;33.14;100516.28;129801;1280;115170;-64
2023/05/12 10:09:51;;;;;;;8.20;3.80;;;;;;;22.02;33.49;100519.74;129705;1278;114798;-64
2023/05/12 10:12:54;;;;;;;6.40;3.80;;;;;;;21.95;33.53;100521.30;129612;1276;114727;-68
2023/05/12 10:15:58;;;;;;;4.00;3.00;;;;;;;21.90;33.60;100514.73;129688;1272;114799;-72
2023/05/12 10:19:02;;;;;;;8.60;2.70;;;;;;;21.81;33.56;100509.16;129537;1280;114759;-69
2023/05/12 10:22:05;;;;;;;;;;;;;;;21.80;33.59;100508.16;129382;1262;115820;-68
2023/05/12 10:25:08;;;;;;;7.60;2.50;;;;;;;21.80;33.98;100506.39;129546;1262;114717;-74
2023/05/12 10:28:11;;;;;;;3.80;3.00;;;;;;;21.77;33.94;100506.67;129643;1262;114760;-70
2023/05/12 10:31:13;;;;;;;5.40;4.30;;;;;;;21.74;34.12;100506.91;129521;1281;114809;-66
2023/05/12 10:34:20;;;;;;;6.00;3.00;;;;;;;21.74;33.58;100506.05;129684;1263;114792;-66
2023/05/12 10:37:22;;;;;;;4.60;3.00;;;;;;;21.73;33.58;100513.56;129672;1270;128876;-62
2023/05/12 10:40:25;;;;;;;7.20;3.20;;;;;;;21.69;33.50;100511.69;129529;1260;115114;-68
2023/05/12 10:43:33;;;;;;;3.70;3.20;;;;;;;21.66;33.58;100513.16;129484;1262;114778;-66
2023/05/12 10:46:36;;;;;;;8.50;3.30;;;;;;;21.55;33.60;100507.36;129545;1263;114888;-64
2023/05/12 10:49:40;;;;;;;4.20;2.90;;;;;;;21.54;33.87;100507.84;130394;1263;114719;-68
2023/05/12 10:52:55;;;;;;;7.60;3.00;;;;;;;21.59;34.05;100502.69;130344;1263;128001;-65
2023/05/12 10:56:04;;;;;;;6.10;2.40;;;;;;;21.69;33.49;100505.00;130137;1262;115202;-72
2023/05/12 10:59:16;;;;;;;7.00;2.70;;;;;;;21.70;32.67;100500.88;129687;1259;114971;-65
2023/05/12 11:02:21;;;;;;;4.10;2.90;;;;;;;21.62;32.07;100506.95;129583;1264;116462;-63
2023/05/12 11:05:33;;;;;;;4.10;3.00;;;;;;;21.47;32.49;100505.37;129429;1278;114809;-68
2023/05/12 11:08:37;;;;;;;5.40;2.60;;;;;;;21.38;32.48;100502.21;129701;1263;128603;-67
2023/05/12 11:11:42;;;;;;;4.60;2.80;;;;;;;21.36;32.69;100494.91;129981;1265;114734;-64
2023/05/12 11:14:45;;;;;;;5.10;2.80;;;;;;;21.38;32.65;100500.06;129606;1260;115200;-71
2023/05/12 11:17:48;;;;;;;7.20;3.20;;;;;;;21.31;32.73;100501.26;129512;1264;114769;-63
2023/05/12 11:20:50;;;;;;;6.00;2.60;;;;;;;21.29;32.90;100499.41;129620;1280;114717;-73
2023/05/12 11:23:54;;;;;;;3.90;3.10;;;;;;;21.24;32.68;100502.36;129866;1278;114776;-69
2023/05/12 11:26:57;;;;;;;5.20;2.70;;;;;;;21.17;32.35;100496.13;129803;1272;115103;-70
2023/05/12 11:30:01;;;;;;;10.70;2.80;;;;;;;21.17;32.67;100494.02;129936;1278;114723;-68
2023/05/12 11:33:03;;;;;;;6.90;2.50;;;;;;;21.22;32.49;100498.20;129822;1256;115243;-66
2023/05/12 11:36:06;;;;;;;5.00;2.30;;;;;;;21.30;32.52;100500.56;129873;1280;114800;-69
2023/05/12 11:39:14;;;;;;;5.30;3.40;;;;;;;21.38;32.30;100501.52;129725;1280;114717;-68
2023/05/12 11:42:18;;;;;;;5.00;2.70;;;;;;;21.44;32.76;100499.64;129655;1267;128454;-68
2023/05/12 11:45:26;;;;;;;7.70;3.20;;;;;;;21.51;32.61;100500.78;129549;1268;116569;-70
2023/05/12 11:48:35;;;;;;;5.40;2.90;;;;;;;21.54;32.61;100498.95;129581;1265;114963;-67
2023/05/12 11:51:41;;;;;;;6.10;3.40;;;;;;;21.67;32.30;100496.52;129617;1262;114720;-70
2023/05/12 11:54:57;;;;;;;6.50;3.20;;;;;;;21.70;32.23;100497.27;129399;1281;114984;-66
2023/05/12 11:58:01;;;;;;;4.60;2.70;;;;;;;21.70;32.42;100500.04;129375;1259;127907;-71
2023/05/12 12:01:11;;;;;;;6.60;3.10;;;;;;;21.67;32.20;100506.99;129597;1281;115266;-68
2023/05/12 12:04:13;;;;;;;4.60;2.30;;;;;;;21.71;32.43;100498.49;129554;1262;114730;-72
2023/05/12 12:07:16;;;;;;;5.80;2.70;;;;;;;21.78;31.93;100498.74;129402;1257;114724;-68
2023/05/12 12:10:19;;;;;;;2.70;2.00;;;;;;;21.77;31.55;100499.79;129518;1262;114852;-64
2023/05/12 12:13:23;;;;;;;7.40;3.00;;;;;;;21.71;31.22;100494.33;129751;1261;114840;-71
2023/05/12 12:16:27;;;;;;;5.20;2.30;;;;;;;21.64;30.59;100500.05;129587;1267;128316;-67
2023/05/12 12:19:30;;;;;;;5.70;2.70;;;;;;;21.58;30.47;100502.05;129727;1265;114807;-68
2023/05/12 12:22:33;;;;;;;6.60;2.50;;;;;;;21.51;30.39;100503.02;129925;1261;114741;-71
2023/05/12 12:25:36;;;;;;;6.70;2.40;;;;;;;21.48;30.01;100500.65;129647;1262;114982;-63
2023/05/12 12:28:38;;;;;;;5.20;2.50;;;;;;;21.50;30.27;100497.89;129584;1281;115199;-69
2023/05/12 12:31:40;;;;;;;3.20;2.30;;;;;;;21.54;29.91;100500.19;129565;1262;115691;-70
2023/05/12 12:34:45;;;;;;;2.80;2.40;;;;;;;21.53;29.86;100498.26;129541;1281;129604;-70
2023/05/12 12:37:50;;;;;;;6.60;2.80;;;;;;;21.50;29.84;100500.08;129548;1267;114725;-64
2023/05/12 12:40:52;;;;;;;4.80;2.20;;;;;;;21.44;30.07;100499.11;129507;1264;115099;-73
2023/05/12 12:43:55;;;;;;;3.40;2.20;;;;;;;21.44;30.01;100496.07;129702;1281;114801;-68
2023/05/12 12:46:58;;;;;;;2.60;2.10;;;;;;;21.43;29.37;100492.14;129567;1278;114712;-70
2023/05/12 12:50:00;;;;;;;7.40;3.10;;;;;;;21.49;29.33;100488.48;129611;1280;114736;-72
2023/05/12 12:53:03;;;;;;;4.20;2.40;;;;;;;21.58;29.12;100484.80;129621;1263;114757;-67
2023/05/12 12:56:06;;;;;;;4.60;1.80;;;;;;;21.63;29.40;100487.75;129490;1265;115245;-72
2023/05/12 12:59:08;;;;;;;4.30;1.80;;;;;;;21.72;29.38;100486.27;129620;1280;114862;-69
2023/05/12 13:02:11;;;;;;;4.00;2.10;;;;;;;21.80;28.88;100493.64;129687;1263;114710;-70
2023/05/12 13:05:13;;;;;;;3.10;1.80;;;;;;;21.79;28.59;100494.09;129623;1263;114792;-67
2023/05/12 13:08:16;;;;;;;3.50;1.90;;;;;;;21.77;28.84;100492.31;129544;1264;114769;-68
2023/05/12 13:11:18;;;;;;;3.90;2.10;;;;;;;21.72;28.48;100494.02;129221;1262;404697;-61
2023/05/12 13:14:21;;;;;;;3.70;2.10;;;;;;;21.65;28.65;100490.86;129466;1271;114811;-74
2023/05/12 13:17:25;;;;;;;9.50;2.20;;;;;;;21.63;28.96;100493.02;129495;1263;114782;-70
2023/05/12 13:20:27;;;;;;;6.40;2.00;;;;;;;21.63;28.91;100488.45;129544;1281;114722;-65
2023/05/12 13:23:29;;;;;;;4.00;2.10;;;;;;;21.69;29.01;100490.80;129491;1281;114759;-70
2023/05/12 13:26:32;;;;;;;2.00;1.80;;;;;;;21.78;28.39;100482.57;129264;1275;114874;-71
2023/05/12 13:29:35;;;;;;;3.10;2.20;;;;;;;21.87;28.08;100486.46;129401;1273;114792;-68
2023/05/12 13:32:37;;;;;;;2.90;2.20;;;;;;;21.91;28.09;100486.08;129427;1268;114750;-66
2023/05/12 13:35:40;;;;;;;3.10;2.10;;;;;;;21.95;28.21;100485.64;129564;1265;114663;-71
2023/05/12 13:38:42;;;;;;;4.00;2.10;;;;;;;22.02;28.17;100486.86;129264;1268;114815;-70
2023/05/12 13:41:44;;;;;;;2.60;2.30;;;;;;;22.11;28.65;100480.55;129393;1265;114739;-70
2023/05/12 13:44:47;;;;;;;2.80;2.00;;;;;;;22.20;28.80;100471.45;129471;1281;114833;-70
2023/05/12 13:47:50;;;;;;;4.70;1.80;;;;;;;22.37;28.60;100475.14;129340;1281;115070;-60
2023/05/12 13:50:52;;;;;;;8.20;2.20;;;;;;;22.50;27.79;100477.02;129584;1281;114833;-66